sensor_id;sensor_type;location;lat;lon;timestamp;P1;durP1;ratioP1;P2;durP2;ratioP2
84142;SDS011;74260;50.772;7.730;2024-03-02T00:00:00;7.32;;;3.88;;
84142;SDS011;74260;50.772;7.730;2024-03-02T00:01:03;5.77;;;3.50;;
84142;SDS011;74260;50.772;7.730;2024-03-02T00:01:33;6.65;;;3.30;;
84142;SDS011;74260;50.772;7.730;2024-03-02T00:02:06;7.32;;;3.75;;
84142;SDS011;74260;50.772;7.730;2024-03-02T00:02:43;5.20;;;3.30;;
84142;SDS011;74260;50.772;7.730;2024-03-02T00:03:17;7.35;;;4.03;;
84142;SDS011;74260;50.772;7.730;2024-03-02T00:03:48;5.95;;;3.88;;
84142;SDS011;74260;50.772;7.730;2024-03-02T00:04:18;7.13;;;4.10;;
84142;SDS011;74260;50.772;7.730;2024-03-02T00:04:49;6.13;;;3.72;;
84142;SDS011;74260;50.772;7.730;2024-03-02T00:05:19;7.55;;;4.40;;
84142;SDS011;74260;50.772;7.730;2024-03-02T00:05:51;5.47;;;3.40;;
84142;SDS011;74260;50.772;7.730;2024-03-02T00:06:23;6.25;;;3.95;;
84142;SDS011;74260;50.772;7.730;2024-03-02T00:06:55;7.22;;;4.40;;
84142;SDS011;74260;50.772;7.730;2024-03-02T00:07:25;9.75;;;3.63;;
84142;SDS011;74260;50.772;7.730;2024-03-02T00:07:59;5.88;;;3.30;;
84142;SDS011;74260;50.772;7.730;2024-03-02T00:08:30;5.55;;;3.60;;
84142;SDS011;74260;50.772;7.730;2024-03-02T00:09:00;5.95;;;3.72;;
84142;SDS011;74260;50.772;7.730;2024-03-02T00:09:31;6.75;;;3.70;;
84142;SDS011;74260;50.772;7.730;2024-03-02T00:10:04;6.25;;;3.40;;
84142;SDS011;74260;50.772;7.730;2024-03-02T00:10:42;6.60;;;3.72;;
84142;SDS011;74260;50.772;7.730;2024-03-02T00:11:12;6.50;;;3.60;;
84142;SDS011;74260;50.772;7.730;2024-03-02T00:11:45;7.03;;;3.70;;
84142;SDS011;74260;50.772;7.730;2024-03-02T00:12:15;5.18;;;3.42;;
84142;SDS011;74260;50.772;7.730;2024-03-02T00:12:47;6.78;;;3.75;;
84142;SDS011;74260;50.772;7.730;2024-03-02T00:13:20;6.88;;;3.83;;
84142;SDS011;74260;50.772;7.730;2024-03-02T00:13:52;6.63;;;4.45;;
84142;SDS011;74260;50.772;7.730;2024-03-02T00:14:23;6.40;;;3.72;;
84142;SDS011;74260;50.772;7.730;2024-03-02T00:14:55;7.25;;;3.90;;
84142;SDS011;74260;50.772;7.730;2024-03-02T00:16:12;8.18;;;3.97;;
84142;SDS011;74260;50.772;7.730;2024-03-02T00:16:43;6.20;;;3.40;;
84142;SDS011;74260;50.772;7.730;2024-03-02T00:17:16;8.60;;;4.05;;
84142;SDS011;74260;50.772;7.730;2024-03-02T00:17:54;6.60;;;3.50;;
84142;SDS011;74260;50.772;7.730;2024-03-02T00:18:26;5.68;;;3.30;;
84142;SDS011;74260;50.772;7.730;2024-03-02T00:19:03;6.38;;;3.10;;
84142;SDS011;74260;50.772;7.730;2024-03-02T00:19:38;7.15;;;3.25;;
84142;SDS011;74260;50.772;7.730;2024-03-02T00:20:09;7.20;;;3.58;;
84142;SDS011;74260;50.772;7.730;2024-03-02T00:20:40;5.60;;;3.70;;
84142;SDS011;74260;50.772;7.730;2024-03-02T00:21:11;6.30;;;3.28;;
84142;SDS011;74260;50.772;7.730;2024-03-02T00:21:43;6.53;;;3.42;;
84142;SDS011;74260;50.772;7.730;2024-03-02T00:22:13;6.28;;;3.67;;
84142;SDS011;74260;50.772;7.730;2024-03-02T00:22:43;6.30;;;3.80;;
84142;SDS011;74260;50.772;7.730;2024-03-02T00:23:14;8.88;;;3.72;;
84142;SDS011;74260;50.772;7.730;2024-03-02T00:23:47;4.85;;;3.15;;
84142;SDS011;74260;50.772;7.730;2024-03-02T00:24:26;5.90;;;3.28;;
84142;SDS011;74260;50.772;7.730;2024-03-02T00:25:03;6.28;;;3.38;;
84142;SDS011;74260;50.772;7.730;2024-03-02T00:26:11;3.97;;;2.88;;
84142;SDS011;74260;50.772;7.730;2024-03-02T00:26:44;6.78;;;3.25;;
84142;SDS011;74260;50.772;7.730;2024-03-02T00:27:16;6.82;;;3.65;;
84142;SDS011;74260;50.772;7.730;2024-03-02T00:27:49;6.28;;;3.80;;
84142;SDS011;74260;50.772;7.730;2024-03-02T00:28:21;5.78;;;3.25;;
84142;SDS011;74260;50.772;7.730;2024-03-02T00:29:05;6.50;;;3.33;;
84142;SDS011;74260;50.772;7.730;2024-03-02T00:29:35;5.55;;;3.15;;
84142;SDS011;74260;50.772;7.730;2024-03-02T00:30:08;6.40;;;3.50;;
84142;SDS011;74260;50.772;7.730;2024-03-02T00:31:07;8.82;;;3.63;;
84142;SDS011;74260;50.772;7.730;2024-03-02T00:31:39;6.60;;;3.72;;
84142;SDS011;74260;50.772;7.730;2024-03-02T00:32:12;6.43;;;3.40;;
84142;SDS011;74260;50.772;7.730;2024-03-02T00:32:45;5.93;;;3.75;;
84142;SDS011;74260;50.772;7.730;2024-03-02T00:33:15;7.28;;;4.07;;
84142;SDS011;74260;50.772;7.730;2024-03-02T00:33:49;5.03;;;3.33;;
84142;SDS011;74260;50.772;7.730;2024-03-02T00:34:19;6.80;;;3.33;;
84142;SDS011;74260;50.772;7.730;2024-03-02T00:34:49;5.53;;;3.45;;
84142;SDS011;74260;50.772;7.730;2024-03-02T00:35:20;5.22;;;3.35;;
84142;SDS011;74260;50.772;7.730;2024-03-02T00:35:53;7.72;;;3.88;;
84142;SDS011;74260;50.772;7.730;2024-03-02T00:36:26;5.82;;;3.22;;
84142;SDS011;74260;50.772;7.730;2024-03-02T00:36:57;5.88;;;3.83;;
84142;SDS011;74260;50.772;7.730;2024-03-02T00:37:29;8.55;;;3.75;;
84142;SDS011;74260;50.772;7.730;2024-03-02T00:38:06;6.85;;;3.80;;
84142;SDS011;74260;50.772;7.730;2024-03-02T00:38:46;6.45;;;3.50;;
84142;SDS011;74260;50.772;7.730;2024-03-02T00:39:19;5.53;;;3.42;;
84142;SDS011;74260;50.772;7.730;2024-03-02T00:39:51;4.60;;;3.22;;
84142;SDS011;74260;50.772;7.730;2024-03-02T00:40:21;5.53;;;3.25;;
84142;SDS011;74260;50.772;7.730;2024-03-02T00:40:51;5.25;;;3.20;;
84142;SDS011;74260;50.772;7.730;2024-03-02T00:41:29;6.00;;;3.85;;
84142;SDS011;74260;50.772;7.730;2024-03-02T00:42:00;6.38;;;3.55;;
84142;SDS011;74260;50.772;7.730;2024-03-02T00:42:31;5.82;;;3.35;;
84142;SDS011;74260;50.772;7.730;2024-03-02T00:43:02;5.43;;;3.50;;
84142;SDS011;74260;50.772;7.730;2024-03-02T00:44:36;4.97;;;3.10;;
84142;SDS011;74260;50.772;7.730;2024-03-02T00:45:07;5.70;;;3.47;;
84142;SDS011;74260;50.772;7.730;2024-03-02T00:45:39;6.43;;;3.30;;
84142;SDS011;74260;50.772;7.730;2024-03-02T00:46:11;7.68;;;4.00;;
84142;SDS011;74260;50.772;7.730;2024-03-02T00:46:43;6.72;;;3.47;;
84142;SDS011;74260;50.772;7.730;2024-03-02T00:47:13;5.78;;;3.30;;
84142;SDS011;74260;50.772;7.730;2024-03-02T00:47:44;5.00;;;3.13;;
84142;SDS011;74260;50.772;7.730;2024-03-02T00:48:15;6.43;;;3.30;;
84142;SDS011;74260;50.772;7.730;2024-03-02T00:48:53;5.45;;;3.58;;
84142;SDS011;74260;50.772;7.730;2024-03-02T00:49:25;5.78;;;3.42;;
84142;SDS011;74260;50.772;7.730;2024-03-02T00:49:56;5.25;;;2.97;;
84142;SDS011;74260;50.772;7.730;2024-03-02T00:50:26;9.73;;;3.47;;
84142;SDS011;74260;50.772;7.730;2024-03-02T00:50:57;5.60;;;3.50;;
84142;SDS011;74260;50.772;7.730;2024-03-02T00:51:28;5.78;;;3.40;;
84142;SDS011;74260;50.772;7.730;2024-03-02T00:52:00;6.70;;;3.38;;
84142;SDS011;74260;50.772;7.730;2024-03-02T00:52:30;8.55;;;3.47;;
84142;SDS011;74260;50.772;7.730;2024-03-02T00:53:03;7.05;;;4.05;;
84142;SDS011;74260;50.772;7.730;2024-03-02T00:53:33;6.18;;;3.83;;
84142;SDS011;74260;50.772;7.730;2024-03-02T00:54:04;6.13;;;3.35;;
84142;SDS011;74260;50.772;7.730;2024-03-02T00:54:36;6.97;;;3.47;;
84142;SDS011;74260;50.772;7.730;2024-03-02T00:55:07;10.32;;;3.80;;
84142;SDS011;74260;50.772;7.730;2024-03-02T00:55:38;6.40;;;3.58;;
84142;SDS011;74260;50.772;7.730;2024-03-02T00:56:10;5.40;;;3.50;;
84142;SDS011;74260;50.772;7.730;2024-03-02T00:56:41;7.07;;;3.38;;
84142;SDS011;74260;50.772;7.730;2024-03-02T00:57:12;5.72;;;3.22;;
84142;SDS011;74260;50.772;7.730;2024-03-02T00:57:43;6.57;;;3.83;;
84142;SDS011;74260;50.772;7.730;2024-03-02T00:58:14;5.15;;;3.25;;
84142;SDS011;74260;50.772;7.730;2024-03-02T00:58:46;5.97;;;3.10;;
84142;SDS011;74260;50.772;7.730;2024-03-02T00:59:16;6.57;;;3.35;;
84142;SDS011;74260;50.772;7.730;2024-03-02T00:59:47;4.80;;;3.33;;
84142;SDS011;74260;50.772;7.730;2024-03-02T01:00:18;5.80;;;3.78;;
84142;SDS011;74260;50.772;7.730;2024-03-02T01:00:49;6.45;;;3.55;;
84142;SDS011;74260;50.772;7.730;2024-03-02T01:01:20;5.47;;;3.25;;
84142;SDS011;74260;50.772;7.730;2024-03-02T01:01:50;5.25;;;3.10;;
84142;SDS011;74260;50.772;7.730;2024-03-02T01:02:21;8.25;;;3.60;;
84142;SDS011;74260;50.772;7.730;2024-03-02T01:02:51;6.20;;;3.47;;
84142;SDS011;74260;50.772;7.730;2024-03-02T01:03:22;5.53;;;3.40;;
84142;SDS011;74260;50.772;7.730;2024-03-02T01:03:52;6.10;;;3.33;;
84142;SDS011;74260;50.772;7.730;2024-03-02T01:04:23;6.72;;;3.45;;
84142;SDS011;74260;50.772;7.730;2024-03-02T01:04:53;6.05;;;3.28;;
84142;SDS011;74260;50.772;7.730;2024-03-02T01:05:23;6.38;;;3.63;;
84142;SDS011;74260;50.772;7.730;2024-03-02T01:05:54;5.57;;;3.33;;
84142;SDS011;74260;50.772;7.730;2024-03-02T01:06:25;5.65;;;3.30;;
84142;SDS011;74260;50.772;7.730;2024-03-02T01:06:56;5.70;;;3.28;;
84142;SDS011;74260;50.772;7.730;2024-03-02T01:07:28;7.35;;;3.60;;
84142;SDS011;74260;50.772;7.730;2024-03-02T01:07:59;5.30;;;3.60;;
84142;SDS011;74260;50.772;7.730;2024-03-02T01:08:30;6.85;;;3.65;;
84142;SDS011;74260;50.772;7.730;2024-03-02T01:09:01;7.40;;;3.78;;
84142;SDS011;74260;50.772;7.730;2024-03-02T01:09:35;5.47;;;3.38;;
84142;SDS011;74260;50.772;7.730;2024-03-02T01:10:12;6.35;;;3.63;;
84142;SDS011;74260;50.772;7.730;2024-03-02T01:10:43;6.80;;;3.60;;
84142;SDS011;74260;50.772;7.730;2024-03-02T01:11:14;8.85;;;3.90;;
84142;SDS011;74260;50.772;7.730;2024-03-02T01:11:45;6.32;;;3.20;;
84142;SDS011;74260;50.772;7.730;2024-03-02T01:12:15;5.72;;;3.60;;
84142;SDS011;74260;50.772;7.730;2024-03-02T01:12:45;6.97;;;3.83;;
84142;SDS011;74260;50.772;7.730;2024-03-02T01:13:16;8.10;;;3.45;;
84142;SDS011;74260;50.772;7.730;2024-03-02T01:13:46;6.35;;;3.42;;
84142;SDS011;74260;50.772;7.730;2024-03-02T01:14:16;6.28;;;3.17;;
84142;SDS011;74260;50.772;7.730;2024-03-02T01:14:48;5.38;;;3.45;;
84142;SDS011;74260;50.772;7.730;2024-03-02T01:15:20;4.45;;;3.08;;
84142;SDS011;74260;50.772;7.730;2024-03-02T01:16:15;6.43;;;3.45;;
84142;SDS011;74260;50.772;7.730;2024-03-02T01:16:45;5.10;;;3.03;;
84142;SDS011;74260;50.772;7.730;2024-03-02T01:17:16;5.28;;;3.13;;
84142;SDS011;74260;50.772;7.730;2024-03-02T01:17:46;4.13;;;2.88;;
84142;SDS011;74260;50.772;7.730;2024-03-02T01:18:16;5.03;;;3.25;;
84142;SDS011;74260;50.772;7.730;2024-03-02T01:18:47;5.10;;;2.95;;
84142;SDS011;74260;50.772;7.730;2024-03-02T01:19:17;5.63;;;3.25;;
84142;SDS011;74260;50.772;7.730;2024-03-02T01:19:48;7.97;;;3.28;;
84142;SDS011;74260;50.772;7.730;2024-03-02T01:20:19;4.75;;;3.00;;
84142;SDS011;74260;50.772;7.730;2024-03-02T01:20:50;5.00;;;3.00;;
84142;SDS011;74260;50.772;7.730;2024-03-02T01:21:25;5.80;;;3.47;;
84142;SDS011;74260;50.772;7.730;2024-03-02T01:21:56;4.53;;;3.03;;
84142;SDS011;74260;50.772;7.730;2024-03-02T01:22:27;4.28;;;2.70;;
84142;SDS011;74260;50.772;7.730;2024-03-02T01:22:57;4.80;;;3.03;;
84142;SDS011;74260;50.772;7.730;2024-03-02T01:23:28;5.80;;;3.00;;
84142;SDS011;74260;50.772;7.730;2024-03-02T01:23:59;4.53;;;2.78;;
84142;SDS011;74260;50.772;7.730;2024-03-02T01:24:30;5.47;;;2.67;;
84142;SDS011;74260;50.772;7.730;2024-03-02T01:25:00;5.13;;;2.70;;
84142;SDS011;74260;50.772;7.730;2024-03-02T01:25:30;6.95;;;2.95;;
84142;SDS011;74260;50.772;7.730;2024-03-02T01:26:02;5.80;;;2.95;;
84142;SDS011;74260;50.772;7.730;2024-03-02T01:26:33;5.03;;;3.20;;
84142;SDS011;74260;50.772;7.730;2024-03-02T01:27:04;4.35;;;2.80;;
84142;SDS011;74260;50.772;7.730;2024-03-02T01:27:35;5.47;;;3.03;;
84142;SDS011;74260;50.772;7.730;2024-03-02T01:28:06;5.68;;;3.13;;
84142;SDS011;74260;50.772;7.730;2024-03-02T01:28:36;5.15;;;3.13;;
84142;SDS011;74260;50.772;7.730;2024-03-02T01:29:06;5.18;;;3.10;;
84142;SDS011;74260;50.772;7.730;2024-03-02T01:29:37;5.68;;;3.08;;
84142;SDS011;74260;50.772;7.730;2024-03-02T01:30:07;6.15;;;3.03;;
84142;SDS011;74260;50.772;7.730;2024-03-02T01:30:38;4.45;;;2.80;;
84142;SDS011;74260;50.772;7.730;2024-03-02T01:31:09;6.15;;;3.40;;
84142;SDS011;74260;50.772;7.730;2024-03-02T01:31:39;7.80;;;3.45;;
84142;SDS011;74260;50.772;7.730;2024-03-02T01:32:12;4.80;;;2.95;;
84142;SDS011;74260;50.772;7.730;2024-03-02T01:32:42;5.70;;;2.97;;
84142;SDS011;74260;50.772;7.730;2024-03-02T01:33:13;5.97;;;3.65;;
84142;SDS011;74260;50.772;7.730;2024-03-02T01:33:43;4.85;;;2.90;;
84142;SDS011;74260;50.772;7.730;2024-03-02T01:34:13;5.13;;;3.08;;
84142;SDS011;74260;50.772;7.730;2024-03-02T01:34:44;5.40;;;3.00;;
84142;SDS011;74260;50.772;7.730;2024-03-02T01:35:14;7.40;;;3.45;;
84142;SDS011;74260;50.772;7.730;2024-03-02T01:35:45;5.50;;;3.50;;
84142;SDS011;74260;50.772;7.730;2024-03-02T01:36:15;6.15;;;3.30;;
84142;SDS011;74260;50.772;7.730;2024-03-02T01:36:46;4.28;;;3.00;;
84142;SDS011;74260;50.772;7.730;2024-03-02T01:37:16;6.20;;;3.65;;
84142;SDS011;74260;50.772;7.730;2024-03-02T01:37:47;5.43;;;3.03;;
84142;SDS011;74260;50.772;7.730;2024-03-02T01:38:17;5.50;;;3.22;;
84142;SDS011;74260;50.772;7.730;2024-03-02T01:38:47;6.22;;;2.95;;
84142;SDS011;74260;50.772;7.730;2024-03-02T01:39:18;5.85;;;3.20;;
84142;SDS011;74260;50.772;7.730;2024-03-02T01:39:48;6.82;;;3.67;;
84142;SDS011;74260;50.772;7.730;2024-03-02T01:40:19;7.00;;;3.00;;
84142;SDS011;74260;50.772;7.730;2024-03-02T01:40:50;5.28;;;3.13;;
84142;SDS011;74260;50.772;7.730;2024-03-02T01:41:22;5.75;;;2.80;;
84142;SDS011;74260;50.772;7.730;2024-03-02T01:41:52;6.47;;;3.22;;
84142;SDS011;74260;50.772;7.730;2024-03-02T01:42:22;8.40;;;2.97;;
84142;SDS011;74260;50.772;7.730;2024-03-02T01:42:53;5.68;;;3.00;;
84142;SDS011;74260;50.772;7.730;2024-03-02T01:43:29;5.82;;;3.05;;
84142;SDS011;74260;50.772;7.730;2024-03-02T01:44:00;4.80;;;3.08;;
84142;SDS011;74260;50.772;7.730;2024-03-02T01:44:30;5.32;;;3.20;;
84142;SDS011;74260;50.772;7.730;2024-03-02T01:45:01;5.22;;;3.15;;
84142;SDS011;74260;50.772;7.730;2024-03-02T01:45:32;5.03;;;3.20;;
84142;SDS011;74260;50.772;7.730;2024-03-02T01:46:03;6.10;;;3.28;;
84142;SDS011;74260;50.772;7.730;2024-03-02T01:46:34;6.05;;;3.28;;
84142;SDS011;74260;50.772;7.730;2024-03-02T01:47:04;5.95;;;3.45;;
84142;SDS011;74260;50.772;7.730;2024-03-02T01:47:35;8.07;;;3.75;;
84142;SDS011;74260;50.772;7.730;2024-03-02T01:48:06;5.32;;;3.00;;
84142;SDS011;74260;50.772;7.730;2024-03-02T01:48:36;6.63;;;2.92;;
84142;SDS011;74260;50.772;7.730;2024-03-02T01:49:08;8.13;;;3.60;;
84142;SDS011;74260;50.772;7.730;2024-03-02T01:49:38;8.77;;;3.70;;
84142;SDS011;74260;50.772;7.730;2024-03-02T01:50:13;6.78;;;3.65;;
84142;SDS011;74260;50.772;7.730;2024-03-02T01:50:44;6.07;;;3.40;;
84142;SDS011;74260;50.772;7.730;2024-03-02T01:51:14;6.35;;;3.33;;
84142;SDS011;74260;50.772;7.730;2024-03-02T01:51:45;6.10;;;3.28;;
84142;SDS011;74260;50.772;7.730;2024-03-02T01:52:16;5.10;;;2.88;;
84142;SDS011;74260;50.772;7.730;2024-03-02T01:52:46;7.40;;;3.20;;
84142;SDS011;74260;50.772;7.730;2024-03-02T01:53:16;8.45;;;3.38;;
84142;SDS011;74260;50.772;7.730;2024-03-02T01:53:47;7.78;;;3.42;;
84142;SDS011;74260;50.772;7.730;2024-03-02T01:54:19;7.53;;;3.80;;
84142;SDS011;74260;50.772;7.730;2024-03-02T01:54:49;6.60;;;3.33;;
84142;SDS011;74260;50.772;7.730;2024-03-02T01:55:20;7.90;;;3.50;;
84142;SDS011;74260;50.772;7.730;2024-03-02T01:55:50;5.70;;;3.15;;
84142;SDS011;74260;50.772;7.730;2024-03-02T01:56:22;6.03;;;3.65;;
84142;SDS011;74260;50.772;7.730;2024-03-02T01:56:53;7.93;;;4.20;;
84142;SDS011;74260;50.772;7.730;2024-03-02T01:57:23;6.13;;;3.97;;
84142;SDS011;74260;50.772;7.730;2024-03-02T01:57:53;5.30;;;3.15;;
84142;SDS011;74260;50.772;7.730;2024-03-02T01:58:24;6.97;;;3.42;;
84142;SDS011;74260;50.772;7.730;2024-03-02T01:58:54;5.88;;;3.38;;
84142;SDS011;74260;50.772;7.730;2024-03-02T01:59:25;7.03;;;3.58;;
84142;SDS011;74260;50.772;7.730;2024-03-02T01:59:55;5.03;;;3.17;;
84142;SDS011;74260;50.772;7.730;2024-03-02T02:00:26;6.95;;;3.67;;
84142;SDS011;74260;50.772;7.730;2024-03-02T02:00:58;5.35;;;3.20;;
84142;SDS011;74260;50.772;7.730;2024-03-02T02:01:28;12.38;;;4.22;;
84142;SDS011;74260;50.772;7.730;2024-03-02T02:01:59;6.32;;;3.42;;
84142;SDS011;74260;50.772;7.730;2024-03-02T02:02:31;6.95;;;3.40;;
84142;SDS011;74260;50.772;7.730;2024-03-02T02:03:01;7.55;;;4.30;;
84142;SDS011;74260;50.772;7.730;2024-03-02T02:03:32;6.72;;;3.83;;
84142;SDS011;74260;50.772;7.730;2024-03-02T02:04:02;8.07;;;3.50;;
84142;SDS011;74260;50.772;7.730;2024-03-02T02:04:33;5.85;;;3.80;;
84142;SDS011;74260;50.772;7.730;2024-03-02T02:05:04;7.60;;;4.00;;
84142;SDS011;74260;50.772;7.730;2024-03-02T02:05:34;5.63;;;3.42;;
84142;SDS011;74260;50.772;7.730;2024-03-02T02:06:05;6.70;;;3.65;;
84142;SDS011;74260;50.772;7.730;2024-03-02T02:06:35;7.95;;;3.80;;
84142;SDS011;74260;50.772;7.730;2024-03-02T02:07:05;6.38;;;3.80;;
84142;SDS011;74260;50.772;7.730;2024-03-02T02:07:36;6.28;;;4.03;;
84142;SDS011;74260;50.772;7.730;2024-03-02T02:08:07;7.50;;;3.83;;
84142;SDS011;74260;50.772;7.730;2024-03-02T02:08:38;6.88;;;3.65;;
84142;SDS011;74260;50.772;7.730;2024-03-02T02:09:09;6.60;;;4.18;;
84142;SDS011;74260;50.772;7.730;2024-03-02T02:09:42;8.48;;;4.10;;
84142;SDS011;74260;50.772;7.730;2024-03-02T02:10:13;8.27;;;4.13;;
84142;SDS011;74260;50.772;7.730;2024-03-02T02:10:43;6.68;;;3.70;;
84142;SDS011;74260;50.772;7.730;2024-03-02T02:11:14;7.53;;;3.78;;
84142;SDS011;74260;50.772;7.730;2024-03-02T02:11:45;8.73;;;4.45;;
84142;SDS011;74260;50.772;7.730;2024-03-02T02:12:16;6.38;;;3.78;;
84142;SDS011;74260;50.772;7.730;2024-03-02T02:12:46;7.28;;;3.90;;
84142;SDS011;74260;50.772;7.730;2024-03-02T02:13:16;7.78;;;4.22;;
84142;SDS011;74260;50.772;7.730;2024-03-02T02:13:48;8.60;;;4.22;;
84142;SDS011;74260;50.772;7.730;2024-03-02T02:14:18;8.07;;;4.20;;
84142;SDS011;74260;50.772;7.730;2024-03-02T02:14:49;7.43;;;3.92;;
84142;SDS011;74260;50.772;7.730;2024-03-02T02:15:27;8.55;;;4.53;;
84142;SDS011;74260;50.772;7.730;2024-03-02T02:16:05;9.88;;;4.50;;
84142;SDS011;74260;50.772;7.730;2024-03-02T02:16:39;7.35;;;3.72;;
84142;SDS011;74260;50.772;7.730;2024-03-02T02:17:10;7.63;;;4.15;;
84142;SDS011;74260;50.772;7.730;2024-03-02T02:17:41;6.82;;;4.00;;
84142;SDS011;74260;50.772;7.730;2024-03-02T02:18:11;11.02;;;5.10;;
84142;SDS011;74260;50.772;7.730;2024-03-02T02:18:41;7.95;;;4.55;;
84142;SDS011;74260;50.772;7.730;2024-03-02T02:19:12;8.48;;;4.22;;
84142;SDS011;74260;50.772;7.730;2024-03-02T02:19:43;8.30;;;4.80;;
84142;SDS011;74260;50.772;7.730;2024-03-02T02:20:15;7.80;;;4.65;;
84142;SDS011;74260;50.772;7.730;2024-03-02T02:20:49;9.13;;;4.60;;
84142;SDS011;74260;50.772;7.730;2024-03-02T02:21:22;10.02;;;4.72;;
84142;SDS011;74260;50.772;7.730;2024-03-02T02:21:53;9.63;;;4.40;;
84142;SDS011;74260;50.772;7.730;2024-03-02T02:22:23;11.63;;;4.60;;
84142;SDS011;74260;50.772;7.730;2024-03-02T02:23:34;9.48;;;5.43;;
84142;SDS011;74260;50.772;7.730;2024-03-02T02:24:05;8.55;;;4.65;;
84142;SDS011;74260;50.772;7.730;2024-03-02T02:24:35;9.15;;;4.38;;
84142;SDS011;74260;50.772;7.730;2024-03-02T02:25:05;8.27;;;4.35;;
84142;SDS011;74260;50.772;7.730;2024-03-02T02:25:37;10.40;;;4.93;;
84142;SDS011;74260;50.772;7.730;2024-03-02T02:26:07;8.85;;;4.38;;
84142;SDS011;74260;50.772;7.730;2024-03-02T02:26:39;9.73;;;4.85;;
84142;SDS011;74260;50.772;7.730;2024-03-02T02:27:09;7.47;;;4.40;;
84142;SDS011;74260;50.772;7.730;2024-03-02T02:27:44;7.00;;;3.92;;
84142;SDS011;74260;50.772;7.730;2024-03-02T02:28:17;7.70;;;4.28;;
84142;SDS011;74260;50.772;7.730;2024-03-02T02:28:47;6.38;;;3.90;;
84142;SDS011;74260;50.772;7.730;2024-03-02T02:29:19;7.68;;;4.45;;
84142;SDS011;74260;50.772;7.730;2024-03-02T02:29:51;7.70;;;4.72;;
84142;SDS011;74260;50.772;7.730;2024-03-02T02:30:25;9.35;;;4.53;;
84142;SDS011;74260;50.772;7.730;2024-03-02T02:30:56;7.88;;;4.25;;
84142;SDS011;74260;50.772;7.730;2024-03-02T02:31:36;7.43;;;4.30;;
84142;SDS011;74260;50.772;7.730;2024-03-02T02:32:09;7.28;;;4.05;;
84142;SDS011;74260;50.772;7.730;2024-03-02T02:32:39;10.88;;;4.50;;
84142;SDS011;74260;50.772;7.730;2024-03-02T02:33:10;7.57;;;4.38;;
84142;SDS011;74260;50.772;7.730;2024-03-02T02:33:41;8.70;;;4.22;;
84142;SDS011;74260;50.772;7.730;2024-03-02T02:34:11;7.50;;;4.20;;
84142;SDS011;74260;50.772;7.730;2024-03-02T02:34:44;8.02;;;4.38;;
84142;SDS011;74260;50.772;7.730;2024-03-02T02:35:15;6.75;;;4.22;;
84142;SDS011;74260;50.772;7.730;2024-03-02T02:35:45;9.27;;;4.10;;
84142;SDS011;74260;50.772;7.730;2024-03-02T02:36:17;7.80;;;4.47;;
84142;SDS011;74260;50.772;7.730;2024-03-02T02:36:47;8.27;;;4.00;;
84142;SDS011;74260;50.772;7.730;2024-03-02T02:37:18;6.82;;;4.32;;
84142;SDS011;74260;50.772;7.730;2024-03-02T02:37:48;7.95;;;4.32;;
84142;SDS011;74260;50.772;7.730;2024-03-02T02:38:20;7.32;;;4.07;;
84142;SDS011;74260;50.772;7.730;2024-03-02T02:38:50;7.63;;;4.20;;
84142;SDS011;74260;50.772;7.730;2024-03-02T02:39:22;8.82;;;4.05;;
84142;SDS011;74260;50.772;7.730;2024-03-02T02:39:52;7.75;;;4.03;;
84142;SDS011;74260;50.772;7.730;2024-03-02T02:40:23;6.65;;;3.80;;
84142;SDS011;74260;50.772;7.730;2024-03-02T02:40:53;8.30;;;4.60;;
84142;SDS011;74260;50.772;7.730;2024-03-02T02:41:24;7.85;;;4.40;;
84142;SDS011;74260;50.772;7.730;2024-03-02T02:41:54;6.72;;;4.28;;
84142;SDS011;74260;50.772;7.730;2024-03-02T02:42:24;9.02;;;4.20;;
84142;SDS011;74260;50.772;7.730;2024-03-02T02:42:55;9.50;;;4.60;;
84142;SDS011;74260;50.772;7.730;2024-03-02T02:43:25;9.50;;;5.00;;
84142;SDS011;74260;50.772;7.730;2024-03-02T02:43:57;9.05;;;4.20;;
84142;SDS011;74260;50.772;7.730;2024-03-02T02:44:28;9.63;;;4.38;;
84142;SDS011;74260;50.772;7.730;2024-03-02T02:44:58;8.82;;;4.35;;
84142;SDS011;74260;50.772;7.730;2024-03-02T02:45:28;7.63;;;4.40;;
84142;SDS011;74260;50.772;7.730;2024-03-02T02:45:59;9.60;;;4.57;;
84142;SDS011;74260;50.772;7.730;2024-03-02T02:46:29;10.02;;;4.95;;
84142;SDS011;74260;50.772;7.730;2024-03-02T02:46:59;10.50;;;5.13;;
84142;SDS011;74260;50.772;7.730;2024-03-02T02:47:30;7.40;;;4.40;;
84142;SDS011;74260;50.772;7.730;2024-03-02T02:48:00;7.63;;;4.18;;
84142;SDS011;74260;50.772;7.730;2024-03-02T02:48:32;6.85;;;4.20;;
84142;SDS011;74260;50.772;7.730;2024-03-02T02:49:03;8.25;;;4.80;;
84142;SDS011;74260;50.772;7.730;2024-03-02T02:49:33;9.32;;;4.78;;
84142;SDS011;74260;50.772;7.730;2024-03-02T02:50:03;9.48;;;4.65;;
84142;SDS011;74260;50.772;7.730;2024-03-02T02:50:34;9.18;;;4.65;;
84142;SDS011;74260;50.772;7.730;2024-03-02T02:51:05;7.30;;;4.05;;
84142;SDS011;74260;50.772;7.730;2024-03-02T02:51:36;7.60;;;4.50;;
84142;SDS011;74260;50.772;7.730;2024-03-02T02:52:06;11.00;;;4.80;;
84142;SDS011;74260;50.772;7.730;2024-03-02T02:52:39;8.68;;;5.07;;
84142;SDS011;74260;50.772;7.730;2024-03-02T02:53:12;8.88;;;4.85;;
84142;SDS011;74260;50.772;7.730;2024-03-02T02:53:44;8.32;;;4.68;;
84142;SDS011;74260;50.772;7.730;2024-03-02T02:54:14;9.10;;;4.95;;
84142;SDS011;74260;50.772;7.730;2024-03-02T02:54:45;11.68;;;4.90;;
84142;SDS011;74260;50.772;7.730;2024-03-02T02:55:15;10.63;;;4.90;;
84142;SDS011;74260;50.772;7.730;2024-03-02T02:55:45;8.65;;;5.38;;
84142;SDS011;74260;50.772;7.730;2024-03-02T02:56:16;10.57;;;4.75;;
84142;SDS011;74260;50.772;7.730;2024-03-02T02:56:46;9.27;;;4.70;;
84142;SDS011;74260;50.772;7.730;2024-03-02T02:57:17;9.02;;;4.53;;
84142;SDS011;74260;50.772;7.730;2024-03-02T02:57:47;10.00;;;5.10;;
84142;SDS011;74260;50.772;7.730;2024-03-02T02:58:18;8.10;;;5.25;;
84142;SDS011;74260;50.772;7.730;2024-03-02T02:58:48;9.13;;;4.57;;
84142;SDS011;74260;50.772;7.730;2024-03-02T02:59:19;10.93;;;5.20;;
84142;SDS011;74260;50.772;7.730;2024-03-02T02:59:49;7.65;;;4.53;;
84142;SDS011;74260;50.772;7.730;2024-03-02T03:00:19;10.05;;;4.68;;
84142;SDS011;74260;50.772;7.730;2024-03-02T03:00:50;9.07;;;4.82;;
84142;SDS011;74260;50.772;7.730;2024-03-02T03:01:21;9.35;;;4.60;;
84142;SDS011;74260;50.772;7.730;2024-03-02T03:01:52;7.57;;;4.38;;
84142;SDS011;74260;50.772;7.730;2024-03-02T03:02:22;7.47;;;4.40;;
84142;SDS011;74260;50.772;7.730;2024-03-02T03:02:53;9.27;;;4.82;;
84142;SDS011;74260;50.772;7.730;2024-03-02T03:03:24;10.40;;;5.35;;
84142;SDS011;74260;50.772;7.730;2024-03-02T03:03:55;8.15;;;4.53;;
84142;SDS011;74260;50.772;7.730;2024-03-02T03:04:25;9.02;;;4.85;;
84142;SDS011;74260;50.772;7.730;2024-03-02T03:04:56;9.68;;;5.28;;
84142;SDS011;74260;50.772;7.730;2024-03-02T03:05:27;9.77;;;5.05;;
84142;SDS011;74260;50.772;7.730;2024-03-02T03:05:57;9.73;;;5.10;;
84142;SDS011;74260;50.772;7.730;2024-03-02T03:06:27;9.55;;;5.30;;
84142;SDS011;74260;50.772;7.730;2024-03-02T03:06:58;9.30;;;5.40;;
84142;SDS011;74260;50.772;7.730;2024-03-02T03:07:28;8.02;;;4.70;;
84142;SDS011;74260;50.772;7.730;2024-03-02T03:07:59;10.77;;;5.25;;
84142;SDS011;74260;50.772;7.730;2024-03-02T03:08:29;9.88;;;4.68;;
84142;SDS011;74260;50.772;7.730;2024-03-02T03:08:59;9.18;;;5.07;;
84142;SDS011;74260;50.772;7.730;2024-03-02T03:09:30;9.20;;;4.53;;
84142;SDS011;74260;50.772;7.730;2024-03-02T03:10:00;10.60;;;5.05;;
84142;SDS011;74260;50.772;7.730;2024-03-02T03:10:31;7.63;;;4.60;;
84142;SDS011;74260;50.772;7.730;2024-03-02T03:11:01;9.63;;;5.00;;
84142;SDS011;74260;50.772;7.730;2024-03-02T03:11:33;11.10;;;4.70;;
84142;SDS011;74260;50.772;7.730;2024-03-02T03:12:03;8.02;;;4.43;;
84142;SDS011;74260;50.772;7.730;2024-03-02T03:12:34;8.73;;;4.70;;
84142;SDS011;74260;50.772;7.730;2024-03-02T03:13:05;9.90;;;5.00;;